Skip Navigation LinksHome page > Weather > Current weather Skip Navigation Links

Current Weather

Central Park, New York

For information only: do not use for flight planning or navigation.
Latest weather
Observation time Wednesday, March 29, 2017 2:51 AM EDT
Local time Wednesday, March 29, 2017 3:16 AM EDT
Flight conditions Marginal Visual Meteorological Conditions
Winds
Wind direction variable
Wind speed 3 mph
Visibility 10 mi.
Sky condition
Ceiling 1,400 ft. overcast
Cloud layer overcast 1,400 ft.
Temperature 46°F
Dewpoint 43°F
Altimeter 29.98 in.Hg
Derived measurements
Relative humidity 89%
Wind chill 45°F
Density altitude -639 ft.
Sea-level pressure 29.95 in.Hg
Remarks
Automated weather observing station with precipitation discriminator.
METAR KNYC 290651Z VRB03KT 10SM OVC014 08/06 A2998 RMK AO2 SLP142 T00780061

Settings

Location code

InnerDrive.Weather 4.0.6144.1 Release CLR 4.0.30319.34209
Copyright ©2015 Inner Drive Technology. All rights reserved. Portions Copyright ©1986-2015 David Braverman.

Find weather

Site navigation


Skip Navigation Links

Place info

Page info

PayPal - The safer, easier way to pay online!

Return home.

Copyright ©2017 Inner Drive Technology. Purveyors of fine, hand-crafted computer software. Page printed 2017-03-29T07:16:16 UTC.